Tabuleiro, Brazil
Current Conditions -  °F | °C
As of 4:00 PM on Monday 26 Jan 2015 (Local Time) from SBBQ Reporting Station
Thunderstorm Thunderstorm  
Wind Chill: 84°   Ceiling: 3500
Heat Index: 84°   Visibility: 6mi
Dew Point: 59°   Wind: 7mph
Humidity: 42%   Direction: 290°WNW
Pressure: 30.09"   Gusts: NA
Location:  21.36°S, 43.25°W
Report Text: SBBQ 261800Z 29006KT 9999 TS VCSH BKN035 FEW040CB 29/15 Q1019
Loading
Personal Weather Stations






























Interactive Weather Map New forecast layout! Learn more

10-Day Weather Forecast

Advertisements
Track Severe Weather on mobile